Bell, Florida
Current Conditions -  °F | °C
As of 10:35 PM on Saturday 22 Nov 2014 (Local Time) from KLCQ Reporting Station
Overcast Overcast  
Wind Chill: 63°   Ceiling: 2600
Heat Index: 63°   Visibility: 10mi
Dew Point: 63°   Wind: 6mph
Humidity: 100%   Direction: 100°E
Pressure: 30.14"   Gusts: NA
Location:  29.76°N, 82.86°W
Report Text: KLCQ 230335Z AUTO 10005KT 10SM BKN026 OVC034 17/17 A3014 RMK AO2
Loading
Personal Weather Stations






























Interactive Weather Map New forecast layout! Learn more

10-Day Weather Forecast

Advertisements
Track Severe Weather on mobile